createdAt,value
2018-12-04T00:02:26.167Z,11.20
2018-12-04T00:04:55.889Z,11.10
2018-12-04T00:07:24.365Z,11.00
2018-12-04T00:09:52.782Z,11.10
2018-12-04T00:12:22.213Z,11.00
2018-12-04T00:14:50.533Z,11.00
2018-12-04T00:17:19.404Z,11.10
2018-12-04T00:19:48.445Z,11.10
2018-12-04T00:22:16.942Z,11.10
2018-12-04T00:24:46.240Z,11.10
2018-12-04T00:27:14.678Z,11.10
2018-12-04T00:29:43.090Z,11.20
2018-12-04T00:32:11.504Z,11.00
2018-12-04T00:34:39.908Z,11.00
2018-12-04T00:37:09.086Z,11.00
2018-12-04T00:39:37.483Z,11.10
2018-12-04T00:42:12.745Z,11.00
2018-12-04T00:44:41.093Z,11.00
2018-12-04T00:47:09.373Z,11.10
2018-12-04T00:49:37.716Z,11.10
2018-12-04T00:52:06.159Z,11.00
2018-12-04T00:54:35.177Z,11.00
2018-12-04T00:57:03.561Z,11.00
2018-12-04T00:59:32.008Z,11.00
2018-12-04T01:02:00.364Z,11.00
2018-12-04T01:04:28.663Z,10.90
2018-12-04T01:06:57.066Z,10.90
2018-12-04T01:09:26.037Z,10.90
2018-12-04T01:11:54.355Z,10.90
2018-12-04T01:14:22.776Z,10.90
2018-12-04T01:16:51.219Z,11.00
2018-12-04T01:19:19.640Z,10.90
2018-12-04T01:21:48.193Z,10.90
2018-12-04T01:24:16.951Z,10.90
2018-12-04T01:26:45.577Z,10.90
2018-12-04T01:29:14.594Z,10.80
2018-12-04T01:31:43.692Z,10.80
2018-12-04T01:34:12.007Z,10.80
2018-12-04T01:36:40.306Z,10.90
2018-12-04T01:39:08.644Z,10.90
2018-12-04T01:41:36.992Z,10.80
2018-12-04T01:44:05.397Z,10.80
2018-12-04T01:46:34.181Z,10.80
2018-12-04T01:49:02.523Z,10.80
2018-12-04T01:51:30.861Z,10.80
2018-12-04T01:53:59.281Z,10.90
2018-12-04T01:56:29.457Z,10.90
2018-12-04T01:58:57.817Z,10.90
2018-12-04T02:01:26.305Z,11.00
2018-12-04T02:03:54.617Z,11.00
2018-12-04T02:06:23.034Z,11.00
2018-12-04T02:08:51.860Z,10.90
2018-12-04T02:11:20.239Z,10.90
2018-12-04T02:13:48.889Z,10.90
2018-12-04T02:16:17.186Z,10.90
2018-12-04T02:18:45.573Z,10.90
2018-12-04T02:21:13.971Z,10.90
2018-12-04T02:23:42.556Z,10.80
2018-12-04T02:26:11.445Z,10.80
2018-12-04T02:28:42.238Z,10.80
2018-12-04T02:31:11.537Z,10.90
2018-12-04T02:33:39.947Z,10.80
2018-12-04T02:36:08.542Z,10.70
2018-12-04T02:38:36.924Z,10.70
2018-12-04T02:41:05.930Z,10.70
2018-12-04T02:43:34.343Z,10.80
2018-12-04T02:46:02.801Z,10.80
2018-12-04T02:48:31.590Z,10.80
2018-12-04T02:50:59.932Z,10.80
2018-12-04T02:53:28.712Z,10.80
2018-12-04T02:55:57.109Z,10.80
2018-12-04T02:58:25.813Z,10.90
2018-12-04T03:00:54.528Z,10.90
2018-12-04T03:03:23.470Z,10.80
2018-12-04T03:05:52.447Z,10.80
2018-12-04T03:08:20.862Z,10.80
2018-12-04T03:10:49.166Z,10.80
2018-12-04T03:13:18.070Z,10.80
2018-12-04T03:15:46.685Z,10.80
2018-12-04T03:18:15.701Z,10.70
2018-12-04T03:20:44.389Z,10.80
2018-12-04T03:23:13.528Z,10.70
2018-12-04T03:25:41.837Z,10.80
2018-12-04T03:28:10.182Z,10.80
2018-12-04T03:30:38.509Z,10.80
2018-12-04T03:33:07.584Z,10.70
2018-12-04T03:35:35.977Z,10.60
2018-12-04T03:38:04.562Z,10.60
2018-12-04T03:40:32.785Z,10.50
2018-12-04T03:43:01.932Z,10.40
2018-12-04T03:45:30.476Z,10.50
2018-12-04T03:47:58.831Z,10.40
2018-12-04T03:50:27.645Z,10.40
2018-12-04T03:52:57.632Z,10.20
2018-12-04T03:55:26.752Z,10.20
2018-12-04T03:57:55.098Z,10.10
2018-12-04T04:00:23.429Z,10.20
2018-12-04T04:02:51.833Z,10.10
2018-12-04T04:05:20.175Z,10.00
2018-12-04T04:07:49.340Z,10.10
2018-12-04T04:10:17.703Z,10.00
2018-12-04T04:12:46.070Z,10.00
2018-12-04T04:15:14.899Z,10.00
2018-12-04T04:17:43.139Z,10.00
2018-12-04T04:20:11.430Z,10.00
2018-12-04T04:22:39.858Z,9.90
2018-12-04T04:25:08.363Z,9.90
2018-12-04T04:27:36.761Z,9.90
2018-12-04T04:30:05.683Z,9.90
2018-12-04T04:32:35.884Z,9.90
2018-12-04T04:35:04.715Z,9.90
2018-12-04T04:37:33.055Z,9.80
2018-12-04T04:40:01.491Z,9.80
2018-12-04T04:42:29.768Z,9.70
2018-12-04T04:44:58.126Z,9.80
2018-12-04T04:47:26.455Z,9.70
2018-12-04T04:49:55.051Z,9.70
2018-12-04T04:52:23.969Z,9.70
2018-12-04T04:54:52.383Z,9.70
2018-12-04T04:57:20.797Z,9.70
2018-12-04T04:59:50.009Z,9.70
2018-12-04T05:02:18.535Z,9.70
2018-12-04T05:04:47.203Z,9.70
2018-12-04T05:07:16.010Z,9.70
2018-12-04T05:09:44.383Z,9.60
2018-12-04T05:12:12.663Z,9.60
2018-12-04T05:14:41.391Z,9.60
2018-12-04T05:17:09.651Z,9.60
2018-12-04T05:19:38.089Z,9.60
2018-12-04T05:22:06.594Z,9.60
2018-12-04T05:24:35.587Z,9.60
2018-12-04T05:27:04.413Z,9.50
2018-12-04T05:29:32.689Z,9.60
2018-12-04T05:32:01.427Z,9.60
2018-12-04T05:34:30.750Z,9.50
2018-12-04T05:36:59.492Z,9.50
2018-12-04T05:39:28.370Z,9.60
2018-12-04T05:41:57.672Z,9.60
2018-12-04T05:44:26.296Z,9.60
2018-12-04T05:46:55.637Z,9.60
2018-12-04T05:49:24.240Z,9.60
2018-12-04T05:51:53.406Z,9.60
2018-12-04T05:54:22.355Z,9.50
2018-12-04T05:56:50.907Z,9.50
2018-12-04T05:59:20.031Z,9.50
2018-12-04T06:01:48.720Z,9.60
2018-12-04T06:04:17.428Z,9.50
2018-12-04T06:06:46.248Z,9.50
2018-12-04T06:09:15.093Z,9.50
2018-12-04T06:11:43.496Z,9.50
2018-12-04T06:14:12.269Z,9.50
2018-12-04T06:16:41.578Z,9.60
2018-12-04T06:19:09.957Z,9.60
2018-12-04T06:21:38.719Z,9.60
2018-12-04T06:24:07.343Z,9.60
2018-12-04T06:26:35.702Z,9.60
2018-12-04T06:29:04.653Z,9.50
2018-12-04T06:31:33.027Z,9.50
2018-12-04T06:34:01.476Z,9.50
2018-12-04T06:36:30.178Z,9.50
2018-12-04T06:38:58.551Z,9.50
2018-12-04T06:41:26.817Z,9.50
2018-12-04T06:43:55.217Z,9.40
2018-12-04T06:46:23.535Z,9.30
2018-12-04T06:48:51.882Z,9.40
2018-12-04T06:51:20.565Z,9.30
2018-12-04T06:53:49.244Z,9.40
2018-12-04T06:56:17.671Z,9.30
2018-12-04T06:58:46.384Z,9.40
2018-12-04T07:01:15.033Z,9.30
2018-12-04T07:03:43.380Z,9.30
2018-12-04T07:06:11.697Z,9.30
2018-12-04T07:08:40.186Z,9.30
2018-12-04T07:11:08.779Z,9.30
2018-12-04T07:13:38.132Z,9.30
2018-12-04T07:16:06.585Z,9.30
2018-12-04T07:18:35.509Z,9.30
2018-12-04T07:21:03.994Z,9.30
2018-12-04T07:23:33.523Z,9.40
2018-12-04T07:26:01.924Z,9.40
2018-12-04T07:28:30.338Z,9.50
2018-12-04T07:30:58.844Z,9.60
2018-12-04T07:33:27.270Z,9.70
2018-12-04T07:35:55.837Z,9.70
2018-12-04T07:38:24.324Z,9.70
2018-12-04T07:40:52.776Z,9.80
2018-12-04T07:43:21.112Z,9.80
2018-12-04T07:45:49.478Z,9.90
2018-12-04T07:48:17.756Z,9.90
2018-12-04T07:50:46.099Z,10.00
2018-12-04T07:53:14.499Z,10.10
2018-12-04T07:55:45.435Z,10.00
2018-12-04T07:58:15.733Z,10.00
2018-12-04T08:00:44.277Z,10.10
2018-12-04T08:03:12.647Z,10.10
2018-12-04T08:05:41.085Z,10.20
2018-12-04T08:08:09.397Z,10.30
2018-12-04T08:10:37.786Z,10.30
2018-12-04T08:13:06.137Z,10.20
2018-12-04T08:15:34.586Z,10.20
2018-12-04T08:18:02.977Z,10.20
2018-12-04T08:20:31.378Z,10.20
2018-12-04T08:22:59.725Z,10.30
2018-12-04T08:25:28.218Z,10.20
2018-12-04T08:27:56.478Z,10.30
2018-12-04T08:30:24.787Z,10.30
2018-12-04T08:32:53.177Z,10.30
2018-12-04T08:35:21.482Z,10.20
2018-12-04T08:37:49.754Z,10.30
2018-12-04T08:40:20.209Z,10.20
2018-12-04T08:42:48.899Z,10.30
2018-12-04T08:45:17.246Z,10.30
2018-12-04T08:47:46.046Z,10.30
2018-12-04T08:50:14.399Z,10.50
2018-12-04T08:52:42.718Z,10.30
2018-12-04T08:55:11.143Z,10.30
2018-12-04T08:57:39.739Z,10.30
2018-12-04T09:00:09.443Z,10.30
2018-12-04T09:02:37.925Z,10.30
2018-12-04T09:05:08.172Z,10.10
2018-12-04T09:07:38.146Z,10.20
2018-12-04T09:10:07.144Z,10.20
2018-12-04T09:12:37.613Z,10.20
2018-12-04T09:15:06.632Z,10.20
2018-12-04T09:17:34.962Z,10.30
2018-12-04T09:20:03.377Z,10.50
2018-12-04T09:22:32.377Z,10.50
2018-12-04T09:33:40.255Z,11.00
2018-12-04T09:38:41.874Z,11.30
2018-12-04T09:41:10.231Z,11.30
2018-12-04T09:43:38.925Z,11.50
2018-12-04T09:46:08.372Z,11.50
2018-12-04T09:51:34.512Z,10.80
2018-12-04T09:54:02.965Z,10.50
2018-12-04T09:56:31.544Z,10.40
2018-12-04T09:59:01.234Z,10.40
2018-12-04T10:01:29.613Z,10.00
2018-12-04T10:03:59.095Z,9.80
2018-12-04T10:06:27.744Z,9.80
2018-12-04T10:08:56.213Z,9.50
2018-12-04T10:11:24.796Z,9.30
2018-12-04T10:13:53.100Z,9.40
2018-12-04T10:16:21.469Z,9.20
2018-12-04T10:18:49.820Z,9.20
2018-12-04T10:21:18.151Z,9.40
2018-12-04T10:23:46.581Z,9.30
2018-12-04T10:26:15.142Z,9.50
2018-12-04T10:28:43.729Z,9.60
2018-12-04T10:31:12.145Z,9.70
2018-12-04T10:39:21.998Z,10.20
2018-12-04T10:41:50.361Z,10.10
2018-12-04T10:44:18.785Z,10.20
2018-12-04T10:46:47.165Z,10.00
2018-12-04T10:49:15.568Z,10.30
2018-12-04T10:51:44.048Z,10.20
2018-12-04T10:54:12.596Z,10.20
2018-12-04T10:56:41.888Z,10.20
2018-12-04T10:59:10.729Z,10.30
2018-12-04T11:01:44.580Z,10.40
2018-12-04T11:04:13.265Z,10.30
2018-12-04T11:06:44.018Z,10.50
2018-12-04T11:09:15.687Z,10.40
2018-12-04T11:11:50.573Z,10.20
2018-12-04T11:14:20.054Z,10.30
2018-12-04T11:16:49.231Z,10.40
2018-12-04T11:19:24.428Z,10.40
2018-12-04T11:21:54.397Z,10.40
2018-12-04T11:24:25.514Z,10.40
2018-12-04T11:26:55.662Z,10.50
2018-12-04T11:29:25.486Z,10.50
2018-12-04T11:31:55.480Z,10.60
2018-12-04T11:34:25.149Z,10.50
2018-12-04T11:36:56.963Z,10.50
2018-12-04T11:39:28.793Z,10.60
2018-12-04T11:42:02.779Z,10.70
2018-12-04T11:44:37.683Z,10.50
2018-12-04T11:47:11.988Z,10.40
2018-12-04T11:49:44.736Z,10.30
2018-12-04T11:52:17.755Z,10.00
2018-12-04T11:54:52.431Z,9.90
2018-12-04T11:57:24.368Z,10.10
2018-12-04T11:59:55.690Z,10.20
2018-12-04T12:02:25.028Z,10.10
2018-12-04T12:04:54.832Z,10.10
2018-12-04T12:07:23.976Z,10.00
2018-12-04T12:09:53.987Z,10.20
2018-12-04T12:12:22.639Z,10.40
2018-12-04T12:14:52.436Z,10.50
2018-12-04T12:17:21.532Z,10.40
2018-12-04T12:19:50.752Z,10.50
2018-12-04T12:22:19.496Z,10.50
2018-12-04T12:24:48.927Z,10.50
2018-12-04T12:27:20.835Z,10.70
2018-12-04T12:29:49.505Z,10.40
2018-12-04T12:32:18.472Z,10.20
2018-12-04T12:34:58.944Z,10.20
2018-12-04T12:37:33.372Z,10.30
2018-12-04T12:40:02.185Z,10.10
2018-12-04T12:42:30.959Z,10.00
2018-12-04T12:45:00.248Z,10.10
2018-12-04T12:47:29.680Z,10.00
2018-12-04T12:49:59.273Z,10.10
2018-12-04T12:52:30.118Z,10.20
2018-12-04T12:54:58.896Z,10.20
2018-12-04T12:57:29.551Z,10.10
2018-12-04T12:59:58.083Z,10.10
2018-12-04T13:02:26.519Z,10.00
2018-12-04T13:04:56.842Z,10.20
2018-12-04T13:07:25.374Z,10.20
2018-12-04T13:09:54.291Z,10.40
2018-12-04T13:12:23.796Z,10.30
2018-12-04T13:14:52.750Z,10.30
2018-12-04T13:17:21.618Z,10.00
2018-12-04T13:19:50.237Z,9.90
2018-12-04T13:22:19.028Z,9.80
2018-12-04T13:24:48.375Z,9.90
2018-12-04T13:27:17.068Z,9.90
2018-12-04T13:29:45.738Z,9.90
2018-12-04T13:32:14.366Z,9.90
2018-12-04T13:34:43.159Z,10.00
2018-12-04T13:37:12.613Z,9.90
2018-12-04T13:39:41.486Z,9.80
2018-12-04T13:42:10.365Z,9.70
2018-12-04T14:04:07.711Z,9.70
2018-12-04T14:06:36.428Z,9.60
2018-12-04T14:09:06.850Z,9.60
2018-12-04T14:11:36.183Z,9.60
2018-12-04T14:14:05.304Z,9.70
2018-12-04T14:16:35.664Z,9.70
2018-12-04T14:19:05.940Z,9.70
2018-12-04T14:21:34.537Z,9.50
2018-12-04T14:24:03.756Z,9.60
2018-12-04T14:26:32.903Z,9.40
2018-12-04T14:29:02.419Z,9.10
2018-12-04T14:31:31.804Z,9.10
2018-12-04T14:34:01.237Z,9.00
2018-12-04T14:36:30.997Z,9.10
2018-12-04T14:39:00.817Z,8.90
2018-12-04T14:41:30.314Z,8.90
2018-12-04T14:43:59.059Z,8.80
2018-12-04T14:46:27.808Z,8.80
2018-12-04T14:56:28.288Z,8.80
2018-12-04T14:58:56.813Z,8.50
2018-12-04T15:01:25.578Z,8.50
2018-12-04T15:03:54.422Z,8.50
2018-12-04T15:06:22.940Z,8.40
2018-12-04T15:08:51.925Z,8.30
2018-12-04T15:11:20.712Z,8.30
2018-12-04T15:13:49.062Z,8.20
2018-12-04T15:16:17.851Z,8.20
2018-12-04T15:18:46.626Z,8.30
2018-12-04T15:21:15.211Z,8.10
2018-12-04T15:23:45.107Z,8.00
2018-12-04T15:26:13.782Z,8.00
2018-12-04T15:28:42.973Z,7.90
2018-12-04T15:31:12.266Z,7.90
2018-12-04T15:33:40.794Z,7.80
2018-12-04T15:36:09.582Z,8.00
2018-12-04T15:38:37.982Z,7.80
2018-12-04T15:41:06.465Z,7.90
2018-12-04T15:43:35.229Z,7.90
2018-12-04T15:46:04.305Z,7.80
2018-12-04T15:48:33.745Z,7.70
2018-12-04T15:51:02.630Z,7.60
2018-12-04T15:53:31.610Z,7.70
2018-12-04T15:56:00.585Z,7.70
2018-12-04T15:58:29.085Z,7.90
2018-12-04T16:00:59.822Z,7.80
2018-12-04T16:03:29.158Z,7.80
2018-12-04T16:05:58.645Z,7.70
2018-12-04T16:08:27.351Z,7.60
2018-12-04T16:10:55.950Z,7.80
2018-12-04T16:13:24.667Z,7.80
2018-12-04T16:15:54.549Z,7.90
2018-12-04T16:18:23.179Z,7.90
2018-12-04T16:20:51.748Z,7.90
2018-12-04T16:23:20.672Z,7.90
2018-12-04T16:25:49.193Z,8.00
2018-12-04T16:28:18.147Z,8.10
2018-12-04T16:30:47.296Z,8.10
2018-12-04T16:33:16.181Z,8.10
2018-12-04T16:35:44.994Z,8.10
2018-12-04T16:38:15.669Z,8.10
2018-12-04T16:40:47.889Z,8.20
2018-12-04T16:43:17.991Z,8.10
2018-12-04T16:45:54.942Z,8.10
2018-12-04T16:48:25.014Z,8.10
2018-12-04T16:50:58.310Z,8.10
2018-12-04T16:53:26.930Z,8.20
2018-12-04T16:55:59.676Z,8.20
2018-12-04T16:58:28.525Z,8.30
2018-12-04T17:00:57.704Z,8.20
2018-12-04T17:03:27.810Z,8.10
2018-12-04T17:06:01.105Z,8.00
2018-12-04T17:08:29.843Z,7.90
2018-12-04T17:11:02.742Z,7.90
2018-12-04T17:13:31.604Z,7.90
2018-12-04T17:16:06.898Z,7.80
2018-12-04T17:18:37.741Z,7.70
2018-12-04T17:21:06.548Z,7.70
2018-12-04T17:23:35.483Z,7.60
2018-12-04T17:26:04.369Z,7.60
2018-12-04T17:28:34.390Z,7.70
2018-12-04T17:31:04.304Z,7.80
2018-12-04T17:33:33.295Z,7.70
2018-12-04T17:36:05.065Z,7.90
2018-12-04T17:38:35.304Z,8.00
2018-12-04T17:41:05.639Z,7.90
2018-12-04T17:43:34.726Z,7.90
2018-12-04T17:46:05.378Z,7.60
2018-12-04T17:48:35.224Z,7.50
2018-12-04T17:51:05.006Z,7.50
2018-12-04T17:53:33.642Z,7.60
2018-12-04T17:56:02.522Z,7.40
2018-12-04T17:58:31.386Z,7.20
2018-12-04T18:01:00.954Z,7.20
2018-12-04T18:03:32.521Z,7.20
2018-12-04T18:06:01.756Z,7.40
2018-12-04T18:08:31.295Z,7.50
2018-12-04T18:11:04.848Z,7.50
2018-12-04T18:13:36.235Z,7.50
2018-12-04T18:16:07.283Z,7.50
2018-12-04T18:18:35.687Z,7.40
2018-12-04T18:21:04.270Z,7.40
2018-12-04T18:23:33.436Z,7.40
2018-12-04T18:26:02.643Z,7.30
2018-12-04T18:28:31.977Z,7.20
2018-12-04T18:31:02.197Z,7.30
2018-12-04T18:33:32.543Z,7.40
2018-12-04T18:38:51.347Z,7.30
2018-12-04T18:41:20.357Z,7.30
2018-12-04T18:43:50.030Z,7.30
2018-12-04T18:46:19.977Z,7.20
2018-12-04T18:48:49.080Z,7.20
2018-12-04T18:51:18.276Z,7.10
2018-12-04T18:53:46.818Z,7.10
2018-12-04T18:56:15.996Z,7.10
2018-12-04T18:58:44.657Z,7.00
2018-12-04T19:01:17.149Z,7.10
2018-12-04T19:03:45.610Z,7.20
2018-12-04T19:06:14.025Z,7.20
2018-12-04T19:08:50.159Z,7.10
2018-12-04T19:11:18.565Z,7.20
2018-12-04T19:13:47.003Z,7.20
2018-12-04T19:16:16.229Z,7.10
2018-12-04T19:18:44.795Z,7.20
2018-12-04T19:21:13.113Z,7.10
2018-12-04T19:23:42.093Z,7.20
2018-12-04T19:26:10.558Z,7.20
2018-12-04T19:28:39.013Z,7.20
2018-12-04T19:31:08.173Z,7.10
2018-12-04T19:33:36.905Z,7.10
2018-12-04T19:36:05.180Z,7.10
2018-12-04T19:38:34.286Z,7.10
2018-12-04T19:41:02.647Z,7.00
2018-12-04T19:43:31.066Z,7.10
2018-12-04T19:45:59.368Z,7.00
2018-12-04T19:48:27.787Z,6.90
2018-12-04T19:50:56.726Z,7.00
2018-12-04T19:53:25.052Z,6.90
2018-12-04T19:55:53.313Z,6.80
2018-12-04T19:58:21.774Z,6.90
2018-12-04T20:00:51.115Z,6.90
2018-12-04T20:03:19.794Z,7.10
2018-12-04T20:05:48.568Z,7.20
2018-12-04T20:08:17.334Z,7.10
2018-12-04T20:10:46.121Z,7.30
2018-12-04T20:13:14.610Z,7.20
2018-12-04T20:15:45.228Z,7.20
2018-12-04T20:18:17.485Z,7.10
2018-12-04T20:25:03.460Z,7.10
2018-12-04T20:27:35.643Z,7.00
2018-12-04T20:30:06.059Z,7.00
2018-12-04T20:32:34.830Z,6.90
2018-12-04T20:35:04.921Z,7.00
2018-12-04T20:37:35.543Z,7.10
2018-12-04T20:40:05.871Z,7.10
2018-12-04T20:42:36.051Z,7.00
2018-12-04T20:45:04.810Z,7.10
2018-12-04T20:47:34.804Z,7.00
2018-12-04T20:50:04.260Z,7.00
2018-12-04T20:52:36.038Z,7.00
2018-12-04T20:55:08.821Z,6.90
2018-12-04T20:57:36.144Z,6.90
2018-12-04T21:00:06.884Z,7.00
2018-12-04T21:02:35.349Z,7.10
2018-12-04T21:05:04.882Z,7.10
2018-12-04T21:07:33.226Z,7.00
2018-12-04T21:10:03.020Z,7.00
2018-12-04T21:12:31.560Z,7.00
2018-12-04T21:14:59.967Z,7.00
2018-12-04T21:17:29.174Z,7.00
2018-12-04T21:19:57.569Z,7.00
2018-12-04T21:22:26.780Z,7.00
2018-12-04T21:24:56.457Z,7.00
2018-12-04T21:27:34.458Z,6.90
2018-12-04T21:30:08.660Z,6.90
2018-12-04T21:32:43.098Z,6.90
2018-12-04T21:35:16.822Z,7.00
2018-12-04T21:37:50.564Z,7.10
2018-12-04T21:40:27.213Z,7.00
2018-12-04T21:43:01.076Z,7.00
2018-12-04T21:45:35.762Z,7.00
2018-12-04T21:48:07.175Z,6.90
2018-12-04T21:50:35.567Z,6.80
2018-12-04T21:56:04.753Z,6.80
2018-12-04T21:58:35.775Z,6.70
2018-12-04T22:01:05.419Z,6.80
2018-12-04T22:03:33.829Z,6.80
2018-12-04T22:06:02.162Z,6.80
2018-12-04T22:08:31.024Z,6.70
2018-12-04T22:10:59.381Z,6.70
2018-12-04T22:13:29.194Z,6.70
2018-12-04T22:15:58.955Z,6.70
2018-12-04T22:18:27.381Z,6.70
2018-12-04T22:20:55.776Z,6.80
2018-12-04T22:23:25.526Z,6.70
2018-12-04T22:25:54.511Z,6.70
2018-12-04T22:28:22.878Z,6.80
2018-12-04T22:30:51.385Z,6.80
2018-12-04T22:33:19.882Z,6.80
2018-12-04T22:35:48.563Z,7.00
2018-12-04T22:38:18.300Z,6.90
2018-12-04T22:40:46.771Z,6.90
2018-12-04T22:43:15.373Z,6.90
2018-12-04T22:45:44.496Z,6.90
2018-12-04T22:48:13.290Z,6.70
2018-12-04T22:50:41.687Z,6.80
2018-12-04T22:53:10.331Z,6.90
2018-12-04T22:55:40.112Z,6.90
2018-12-04T22:58:08.604Z,6.90
2018-12-04T23:00:42.201Z,6.90
2018-12-04T23:03:12.073Z,6.80
2018-12-04T23:05:41.095Z,6.80
2018-12-04T23:08:09.940Z,6.90
2018-12-04T23:10:38.355Z,6.90
2018-12-04T23:13:06.821Z,6.80
2018-12-04T23:15:36.438Z,6.70
2018-12-04T23:18:05.082Z,6.70
2018-12-04T23:20:33.492Z,6.60
2018-12-04T23:23:02.026Z,6.60
2018-12-04T23:25:30.598Z,6.70
2018-12-04T23:27:59.013Z,6.70
2018-12-04T23:30:27.529Z,6.70
2018-12-04T23:32:55.931Z,6.40
2018-12-04T23:35:24.816Z,6.40
2018-12-04T23:37:53.310Z,6.40
2018-12-04T23:40:22.121Z,6.40
2018-12-04T23:42:50.456Z,6.40
2018-12-04T23:45:18.818Z,6.40
2018-12-04T23:47:47.172Z,6.40
2018-12-04T23:50:15.518Z,6.50
2018-12-04T23:52:44.011Z,6.50
2018-12-04T23:55:12.389Z,6.60
2018-12-04T23:57:40.663Z,6.80
